Time;durP1;ratioP1;P1;durP2;ratioP2;P2;SDS_P1;SDS_P2;PMS_P1;PMS_P2;Temp;Humidity;BMP_temperature;BMP_pressure;BME280_temperature;BME280_humidity;BME280_pressure;Samples;Min_cycle;Max_cycle;Signal;HPM_P1;HPM_P2
2021/05/23 00:00:00;;;;;;;1.42;0.55;;;;;;;;;;5093156;28;20046;-49
2021/05/23 00:02:26;;;;;;;3.30;0.60;;;;;;;;;;5093681;28;20024;-49
2021/05/23 00:04:52;;;;;;;1.40;0.50;;;;;;;;;;5093188;28;20044;-48
2021/05/23 00:07:20;;;;;;;2.58;0.60;;;;;;;;;;5088788;28;20098;-49
2021/05/23 00:09:47;;;;;;;0.85;0.60;;;;;;;;;;5073156;28;20108;-49
2021/05/23 00:12:16;;;;;;;0.82;0.60;;;;;;;;;;5073136;28;20345;-49
2021/05/23 00:14:42;;;;;;;0.68;0.60;;;;;;;;;;5073665;28;20024;-48
2021/05/23 00:17:08;;;;;;;0.40;0.40;;;;;;;;;;5085796;28;20081;-48
2021/05/23 00:19:34;;;;;;;0.47;0.43;;;;;;;;;;5093241;28;20495;-48
2021/05/23 00:22:00;;;;;;;0.52;0.50;;;;;;;;;;5092965;28;20047;-48
2021/05/23 00:24:26;;;;;;;0.50;0.50;;;;;;;;;;5093232;28;20115;-49
2021/05/23 00:26:52;;;;;;;1.75;0.63;;;;;;;;;;5093019;28;20100;-48
2021/05/23 00:29:18;;;;;;;2.83;0.70;;;;;;;;;;5093166;28;20114;-49
2021/05/23 00:31:44;;;;;;;0.55;0.55;;;;;;;;;;5092368;28;20099;-50
2021/05/23 00:34:10;;;;;;;0.70;0.60;;;;;;;;;;5093437;28;20031;-48
2021/05/23 00:36:36;;;;;;;0.55;0.55;;;;;;;;;;5093141;28;20024;-49
2021/05/23 00:39:03;;;;;;;0.50;0.50;;;;;;;;;;5093108;28;20016;-49
2021/05/23 00:41:29;;;;;;;1.17;0.68;;;;;;;;;;5092920;28;20031;-48
2021/05/23 00:43:55;;;;;;;4.90;0.65;;;;;;;;;;5093055;28;20081;-49
2021/05/23 00:46:21;;;;;;;0.50;0.50;;;;;;;;;;5092432;28;20020;-49
2021/05/23 00:48:47;;;;;;;1.10;0.60;;;;;;;;;;5092702;28;20107;-48
2021/05/23 00:51:13;;;;;;;0.98;0.50;;;;;;;;;;5092452;28;20017;-49
2021/05/23 00:53:39;;;;;;;0.73;0.50;;;;;;;;;;5092681;28;20116;-49
2021/05/23 00:56:05;;;;;;;1.80;0.65;;;;;;;;;;5092458;28;20451;-49
2021/05/23 00:58:31;;;;;;;0.98;0.70;;;;;;;;;;5092586;28;20442;-48
2021/05/23 01:00:57;;;;;;;0.68;0.65;;;;;;;;;;5091700;28;20438;-49
2021/05/23 01:06:05;;;;;;;0.73;0.73;;;;;;;;;;5092440;28;20043;-49
2021/05/23 01:08:32;;;;;;;0.40;0.40;;;;;;;;;;5092173;28;20081;-49
2021/05/23 01:11:03;;;;;;;0.68;0.40;;;;;;;;;;5091621;28;20349;-48
2021/05/23 01:13:36;;;;;;;0.45;0.43;;;;;;;;;;5091956;28;20024;-49
2021/05/23 01:16:06;;;;;;;0.77;0.40;;;;;;;;;;5092264;28;20040;-48
2021/05/23 01:18:39;;;;;;;3.15;0.60;;;;;;;;;;5092086;28;20107;-49
2021/05/23 01:21:06;;;;;;;2.05;0.60;;;;;;;;;;5091879;28;20016;-48
2021/05/23 01:23:35;;;;;;;0.50;0.50;;;;;;;;;;5092109;28;20061;-49
2021/05/23 01:26:07;;;;;;;1.60;0.55;;;;;;;;;;5091773;28;20027;-49
2021/05/23 01:28:34;;;;;;;0.35;0.35;;;;;;;;;;5091972;28;20040;-48
2021/05/23 01:31:01;;;;;;;2.50;0.50;;;;;;;;;;5091599;28;20040;-49
2021/05/23 01:33:27;;;;;;;0.45;0.40;;;;;;;;;;5091776;28;20024;-48
2021/05/23 01:35:57;;;;;;;0.70;0.70;;;;;;;;;;5091848;28;20038;-48
2021/05/23 01:38:24;;;;;;;0.50;0.50;;;;;;;;;;5091658;28;20024;-49
2021/05/23 01:40:51;;;;;;;0.88;0.50;;;;;;;;;;5091344;28;20028;-48
2021/05/23 01:43:19;;;;;;;0.75;0.60;;;;;;;;;;5074193;28;20380;-49
2021/05/23 01:45:45;;;;;;;0.43;0.43;;;;;;;;;;5071469;28;20055;-48
2021/05/23 01:48:11;;;;;;;0.98;0.60;;;;;;;;;;5071422;28;20053;-49
2021/05/23 01:50:38;;;;;;;0.50;0.50;;;;;;;;;;5071191;28;20035;-49
2021/05/23 01:53:04;;;;;;;2.97;0.32;;;;;;;;;;5082112;28;20027;-49
2021/05/23 01:55:31;;;;;;;1.88;0.57;;;;;;;;;;5091819;28;20099;-49
2021/05/23 01:57:57;;;;;;;0.95;0.50;;;;;;;;;;5091496;28;20038;-48
2021/05/23 02:00:36;;;;;;;0.52;0.50;;;;;;;;;;5091381;28;20028;-48
2021/05/23 02:03:03;;;;;;;2.13;0.60;;;;;;;;;;5091358;28;20020;-48
2021/05/23 02:05:29;;;;;;;0.30;0.30;;;;;;;;;;5091664;28;20046;-48
2021/05/23 02:07:55;;;;;;;0.77;0.60;;;;;;;;;;5091323;28;20152;-48
2021/05/23 02:10:21;;;;;;;0.45;0.45;;;;;;;;;;5091068;28;20132;-48
2021/05/23 02:12:48;;;;;;;0.50;0.50;;;;;;;;;;5091005;28;20430;-48
2021/05/23 02:15:17;;;;;;;0.30;0.30;;;;;;;;;;5091517;28;20023;-49
2021/05/23 02:17:44;;;;;;;0.40;0.40;;;;;;;;;;5091267;28;20039;-49
2021/05/23 02:20:12;;;;;;;2.67;0.60;;;;;;;;;;5075721;28;20265;-49
2021/05/23 02:22:39;;;;;;;0.35;0.35;;;;;;;;;;5090000;28;20032;-49
2021/05/23 02:25:05;;;;;;;1.42;0.40;;;;;;;;;;5091139;28;20036;-48
2021/05/23 02:27:35;;;;;;;0.75;0.38;;;;;;;;;;5091316;28;20024;-49
2021/05/23 02:30:02;;;;;;;0.30;0.30;;;;;;;;;;5090764;28;20055;-49
2021/05/23 02:32:28;;;;;;;0.73;0.50;;;;;;;;;;5091123;28;20036;-49
2021/05/23 02:34:54;;;;;;;0.30;0.30;;;;;;;;;;5090952;28;20024;-48
2021/05/23 02:37:20;;;;;;;0.30;0.30;;;;;;;;;;5090602;28;20042;-48
2021/05/23 02:39:46;;;;;;;0.43;0.43;;;;;;;;;;5090890;28;20020;-48
2021/05/23 02:42:12;;;;;;;0.95;0.40;;;;;;;;;;5090700;28;20107;-48
2021/05/23 02:44:37;;;;;;;1.85;0.60;;;;;;;;;;5090562;28;20036;-48
2021/05/23 02:47:03;;;;;;;0.60;0.35;;;;;;;;;;5091154;28;20035;-49
2021/05/23 02:49:30;;;;;;;1.10;0.80;;;;;;;;;;5090996;28;20028;-49
2021/05/23 02:51:56;;;;;;;0.90;0.50;;;;;;;;;;5090671;28;20254;-48
2021/05/23 02:54:22;;;;;;;0.50;0.50;;;;;;;;;;5090639;28;20259;-49
2021/05/23 02:56:48;;;;;;;0.45;0.45;;;;;;;;;;5091137;28;20016;-49
2021/05/23 02:59:14;;;;;;;0.40;0.40;;;;;;;;;;5091197;28;20024;-49
2021/05/23 03:01:40;;;;;;;0.40;0.40;;;;;;;;;;5090747;28;20384;-49
2021/05/23 03:04:06;;;;;;;0.30;0.30;;;;;;;;;;5090550;28;20027;-48
2021/05/23 03:06:32;;;;;;;3.08;0.47;;;;;;;;;;5090972;28;20024;-49
2021/05/23 03:08:58;;;;;;;0.50;0.50;;;;;;;;;;5072295;28;20018;-48
2021/05/23 03:11:24;;;;;;;2.20;0.70;;;;;;;;;;5070249;28;20470;-48
2021/05/23 03:13:50;;;;;;;0.30;0.30;;;;;;;;;;5071100;28;20060;-49
2021/05/23 03:16:16;;;;;;;1.10;0.40;;;;;;;;;;5076261;28;20021;-48
2021/05/23 03:18:42;;;;;;;0.80;0.40;;;;;;;;;;5090748;28;20345;-48
2021/05/23 03:21:08;;;;;;;0.57;0.40;;;;;;;;;;5090212;28;20044;-49
2021/05/23 03:23:34;;;;;;;0.40;0.40;;;;;;;;;;5088970;28;20518;-48
2021/05/23 03:26:00;;;;;;;0.50;0.50;;;;;;;;;;5090471;28;20024;-49
2021/05/23 03:28:26;;;;;;;0.38;0.38;;;;;;;;;;5090718;28;20111;-49
2021/05/23 03:30:52;;;;;;;0.40;0.40;;;;;;;;;;5090047;28;20039;-49
2021/05/23 03:33:18;;;;;;;0.50;0.50;;;;;;;;;;5090558;28;20020;-48
2021/05/23 03:35:44;;;;;;;1.35;0.70;;;;;;;;;;5094221;28;20031;-48
2021/05/23 03:38:10;;;;;;;1.05;0.47;;;;;;;;;;5094355;28;20020;-48
2021/05/23 03:40:37;;;;;;;0.98;0.65;;;;;;;;;;5093847;28;20426;-48
2021/05/23 03:43:04;;;;;;;0.60;0.60;;;;;;;;;;5094214;28;20043;-49
2021/05/23 03:45:30;;;;;;;0.60;0.60;;;;;;;;;;5094223;28;20123;-48
2021/05/23 03:47:56;;;;;;;1.58;0.40;;;;;;;;;;5093772;28;20020;-49
2021/05/23 03:50:23;;;;;;;1.55;0.60;;;;;;;;;;5093726;28;20059;-49
2021/05/23 03:52:50;;;;;;;2.60;0.85;;;;;;;;;;5093820;28;20016;-49
2021/05/23 03:55:16;;;;;;;0.50;0.50;;;;;;;;;;5094129;28;20030;-49
2021/05/23 03:57:42;;;;;;;0.82;0.65;;;;;;;;;;5093098;28;20422;-49
2021/05/23 04:00:09;;;;;;;0.50;0.50;;;;;;;;;;5092942;28;20091;-49
2021/05/23 04:02:35;;;;;;;1.85;1.15;;;;;;;;;;5092391;28;20089;-49
2021/05/23 04:05:01;;;;;;;0.50;0.50;;;;;;;;;;5092534;28;20040;-49
2021/05/23 04:07:27;;;;;;;1.00;0.68;;;;;;;;;;5091488;28;20039;-49
2021/05/23 04:09:54;;;;;;;1.50;0.70;;;;;;;;;;5091769;28;20110;-48
2021/05/23 04:12:37;;;;;;;0.60;0.60;;;;;;;;;;5093366;28;20078;-49
2021/05/23 04:15:05;;;;;;;3.50;0.70;;;;;;;;;;5092766;28;20036;-48
2021/05/23 04:17:31;;;;;;;1.02;0.70;;;;;;;;;;5093594;28;20024;-49
2021/05/23 04:19:57;;;;;;;0.90;0.77;;;;;;;;;;5093468;28;20338;-48
2021/05/23 04:22:23;;;;;;;0.50;0.50;;;;;;;;;;5093321;28;20259;-49
2021/05/23 04:24:49;;;;;;;0.73;0.60;;;;;;;;;;5092962;28;20043;-49
2021/05/23 04:27:15;;;;;;;0.73;0.50;;;;;;;;;;5093112;28;20111;-48
2021/05/23 04:29:41;;;;;;;0.55;0.55;;;;;;;;;;5092641;28;20032;-48
2021/05/23 04:32:08;;;;;;;2.35;1.00;;;;;;;;;;5092543;28;20024;-48
2021/05/23 04:34:37;;;;;;;1.00;0.65;;;;;;;;;;5092604;28;20054;-49
2021/05/23 04:37:04;;;;;;;0.43;0.40;;;;;;;;;;5093290;28;20054;-48
2021/05/23 04:39:30;;;;;;;0.40;0.40;;;;;;;;;;5093059;28;20023;-48
2021/05/23 04:41:56;;;;;;;2.25;0.70;;;;;;;;;;5092370;28;20470;-48
2021/05/23 04:44:22;;;;;;;0.65;0.63;;;;;;;;;;5092786;28;20111;-48
2021/05/23 04:46:48;;;;;;;1.60;0.68;;;;;;;;;;5091579;28;20024;-49
2021/05/23 04:49:14;;;;;;;1.23;0.80;;;;;;;;;;5092984;28;20039;-49
2021/05/23 04:51:40;;;;;;;0.98;0.93;;;;;;;;;;5091199;28;20031;-48
2021/05/23 04:54:06;;;;;;;0.57;0.57;;;;;;;;;;5092780;28;20052;-49
2021/05/23 04:56:32;;;;;;;0.70;0.50;;;;;;;;;;5092654;28;20020;-48
2021/05/23 04:58:58;;;;;;;1.30;0.50;;;;;;;;;;5092531;28;20430;-49
2021/05/23 05:01:24;;;;;;;1.55;0.70;;;;;;;;;;5092189;28;20042;-49
2021/05/23 05:03:50;;;;;;;0.50;0.50;;;;;;;;;;5092680;28;20473;-48
2021/05/23 05:06:16;;;;;;;0.90;0.40;;;;;;;;;;5092949;28;20036;-48
2021/05/23 05:08:42;;;;;;;0.47;0.47;;;;;;;;;;5091907;28;20063;-48
2021/05/23 05:11:08;;;;;;;1.95;0.50;;;;;;;;;;5091460;28;20491;-48
2021/05/23 05:13:34;;;;;;;0.43;0.43;;;;;;;;;;5092143;28;20042;-49
2021/05/23 05:16:00;;;;;;;0.40;0.40;;;;;;;;;;5090556;28;20016;-48
2021/05/23 05:18:26;;;;;;;0.40;0.40;;;;;;;;;;5091267;28;20035;-48
2021/05/23 05:20:54;;;;;;;0.40;0.30;;;;;;;;;;5091730;28;20049;-48
2021/05/23 05:23:20;;;;;;;2.70;0.57;;;;;;;;;;5092078;28;20032;-49
2021/05/23 05:25:46;;;;;;;2.05;0.77;;;;;;;;;;5091038;28;20034;-49
2021/05/23 05:28:12;;;;;;;0.50;0.50;;;;;;;;;;5091951;28;20331;-48
2021/05/23 05:30:38;;;;;;;2.97;0.73;;;;;;;;;;5091256;28;20085;-48
2021/05/23 05:33:04;;;;;;;1.52;0.70;;;;;;;;;;5091475;28;20401;-49
2021/05/23 05:35:30;;;;;;;1.13;0.70;;;;;;;;;;5091532;28;20434;-48
2021/05/23 05:37:56;;;;;;;1.23;0.60;;;;;;;;;;5092105;28;20035;-49
2021/05/23 05:40:22;;;;;;;0.68;0.50;;;;;;;;;;5091337;28;20342;-48
2021/05/23 05:42:48;;;;;;;0.40;0.40;;;;;;;;;;5091707;28;20103;-49
2021/05/23 05:45:14;;;;;;;0.40;0.40;;;;;;;;;;5091802;28;20035;-49
2021/05/23 05:47:40;;;;;;;1.17;0.45;;;;;;;;;;5091877;28;20362;-48
2021/05/23 05:50:06;;;;;;;0.57;0.57;;;;;;;;;;5087535;28;20433;-48
2021/05/23 05:52:32;;;;;;;1.95;0.40;;;;;;;;;;5091078;28;20061;-49
2021/05/23 05:54:58;;;;;;;0.40;0.40;;;;;;;;;;5090872;28;20030;-49
2021/05/23 05:57:24;;;;;;;0.57;0.57;;;;;;;;;;5091211;28;20031;-49
2021/05/23 05:59:50;;;;;;;0.63;0.40;;;;;;;;;;5091028;28;20422;-49
2021/05/23 06:02:17;;;;;;;1.05;0.60;;;;;;;;;;5090894;28;20114;-48
2021/05/23 06:04:43;;;;;;;1.42;0.68;;;;;;;;;;5091528;28;20036;-49
2021/05/23 06:07:09;;;;;;;1.27;0.80;;;;;;;;;;5089135;28;20438;-48
2021/05/23 06:09:35;;;;;;;0.50;0.50;;;;;;;;;;5070775;28;20446;-49
2021/05/23 06:12:01;;;;;;;0.40;0.40;;;;;;;;;;5070901;28;20051;-48
2021/05/23 06:14:27;;;;;;;2.17;0.93;;;;;;;;;;5071152;28;20020;-49
2021/05/23 06:16:53;;;;;;;0.52;0.52;;;;;;;;;;5081794;28;20097;-49
2021/05/23 06:19:19;;;;;;;3.75;0.77;;;;;;;;;;5091396;28;20026;-48
2021/05/23 06:21:45;;;;;;;2.03;0.70;;;;;;;;;;5090661;28;20360;-49
2021/05/23 06:24:11;;;;;;;0.75;0.63;;;;;;;;;;5090368;28;20076;-48
2021/05/23 06:26:38;;;;;;;0.57;0.50;;;;;;;;;;5091116;28;20016;-49
2021/05/23 06:29:04;;;;;;;0.50;0.50;;;;;;;;;;5091085;28;20056;-48
2021/05/23 06:31:30;;;;;;;0.50;0.50;;;;;;;;;;5090672;28;20020;-50
2021/05/23 06:33:56;;;;;;;0.95;0.80;;;;;;;;;;5090514;28;20070;-48
2021/05/23 06:36:23;;;;;;;0.50;0.50;;;;;;;;;;5091409;28;20058;-48
2021/05/23 06:38:49;;;;;;;0.52;0.52;;;;;;;;;;5090311;28;20327;-49
2021/05/23 06:41:15;;;;;;;0.80;0.52;;;;;;;;;;5090131;28;20032;-48
2021/05/23 06:43:41;;;;;;;0.95;0.77;;;;;;;;;;5090364;28;20499;-48
2021/05/23 06:46:07;;;;;;;0.32;0.32;;;;;;;;;;5091233;28;20080;-48
2021/05/23 06:48:33;;;;;;;0.73;0.60;;;;;;;;;;5091213;28;20455;-49
2021/05/23 06:51:00;;;;;;;0.20;0.20;;;;;;;;;;5090097;28;20024;-49
2021/05/23 06:53:26;;;;;;;0.95;0.30;;;;;;;;;;5090447;28;20111;-49
2021/05/23 06:55:52;;;;;;;0.40;0.40;;;;;;;;;;5090736;28;20021;-48
2021/05/23 06:58:18;;;;;;;1.75;0.75;;;;;;;;;;5091054;28;20025;-48
2021/05/23 07:00:44;;;;;;;0.43;0.43;;;;;;;;;;5090519;28;20016;-49
2021/05/23 07:03:11;;;;;;;0.88;0.88;;;;;;;;;;5091048;28;20020;-50
2021/05/23 07:05:37;;;;;;;1.00;0.90;;;;;;;;;;5090723;28;20094;-49
2021/05/23 07:08:04;;;;;;;2.03;0.88;;;;;;;;;;5090073;28;20450;-48
2021/05/23 07:10:30;;;;;;;1.40;0.93;;;;;;;;;;5093995;28;20055;-48
2021/05/23 07:12:56;;;;;;;1.52;0.70;;;;;;;;;;5094068;28;20514;-48
2021/05/23 07:15:22;;;;;;;0.85;0.77;;;;;;;;;;5094325;28;20043;-48
2021/05/23 07:17:50;;;;;;;1.60;0.98;;;;;;;;;;5092688;28;20091;-49
2021/05/23 07:20:16;;;;;;;0.73;0.60;;;;;;;;;;5093943;28;20054;-49
2021/05/23 07:22:42;;;;;;;1.08;0.88;;;;;;;;;;5094037;28;20047;-49
2021/05/23 07:25:09;;;;;;;2.65;1.08;;;;;;;;;;5090502;28;20111;-48
2021/05/23 07:27:34;;;;;;;2.75;0.80;;;;;;;;;;5091555;28;20050;-49
2021/05/23 07:30:00;;;;;;;3.20;0.70;;;;;;;;;;5089266;28;20037;-48
2021/05/23 07:32:26;;;;;;;1.00;0.60;;;;;;;;;;5093152;28;20036;-49
2021/05/23 07:34:52;;;;;;;2.35;0.50;;;;;;;;;;5093251;28;20102;-49
2021/05/23 07:37:19;;;;;;;2.50;0.50;;;;;;;;;;5093628;28;20135;-49
2021/05/23 07:39:45;;;;;;;0.50;0.50;;;;;;;;;;5093675;28;20116;-49
2021/05/23 07:42:11;;;;;;;0.70;0.60;;;;;;;;;;5093875;28;20048;-49
2021/05/23 07:44:37;;;;;;;0.82;0.50;;;;;;;;;;5093395;28;20040;-48
2021/05/23 07:47:03;;;;;;;0.40;0.40;;;;;;;;;;5094319;28;20055;-49
2021/05/23 07:49:29;;;;;;;2.92;0.50;;;;;;;;;;5093578;28;20106;-49
2021/05/23 07:51:55;;;;;;;0.40;0.40;;;;;;;;;;5093687;28;20073;-48
2021/05/23 07:54:21;;;;;;;0.30;0.30;;;;;;;;;;5093548;28;20024;-49
2021/05/23 07:56:47;;;;;;;0.30;0.30;;;;;;;;;;5093708;28;20028;-48
2021/05/23 07:59:13;;;;;;;0.38;0.38;;;;;;;;;;5093745;28;20449;-48
2021/05/23 08:01:39;;;;;;;0.40;0.40;;;;;;;;;;5093701;28;20020;-49
2021/05/23 08:04:05;;;;;;;0.93;0.50;;;;;;;;;;5092926;28;20040;-49
2021/05/23 08:06:33;;;;;;;0.88;0.85;;;;;;;;;;5093785;28;20055;-49
2021/05/23 08:08:59;;;;;;;0.98;0.50;;;;;;;;;;5093266;28;20099;-48
2021/05/23 08:11:25;;;;;;;0.40;0.40;;;;;;;;;;5093501;28;20154;-49
2021/05/23 08:13:51;;;;;;;0.80;0.47;;;;;;;;;;5093449;28;20153;-48
2021/05/23 08:16:17;;;;;;;0.30;0.30;;;;;;;;;;5093823;28;20020;-49
2021/05/23 08:18:43;;;;;;;0.50;0.50;;;;;;;;;;5092990;28;20501;-48
2021/05/23 08:21:09;;;;;;;1.00;0.40;;;;;;;;;;5091990;28;20028;-48
2021/05/23 08:23:36;;;;;;;0.47;0.47;;;;;;;;;;5090613;28;20138;-49
2021/05/23 08:26:02;;;;;;;0.30;0.30;;;;;;;;;;5092896;28;20320;-49
2021/05/23 08:28:31;;;;;;;0.55;0.40;;;;;;;;;;5092507;28;20103;-49
2021/05/23 08:30:57;;;;;;;0.50;0.40;;;;;;;;;;5092611;28;20106;-48
2021/05/23 08:33:23;;;;;;;0.60;0.60;;;;;;;;;;5092585;28;20116;-48
2021/05/23 08:35:49;;;;;;;0.30;0.30;;;;;;;;;;5092881;28;20098;-48
2021/05/23 08:38:15;;;;;;;0.65;0.43;;;;;;;;;;5092830;28;20397;-49
2021/05/23 08:40:42;;;;;;;1.10;0.60;;;;;;;;;;5092304;28;20107;-48
2021/05/23 08:43:09;;;;;;;0.70;0.40;;;;;;;;;;5088883;28;20050;-48
2021/05/23 08:45:35;;;;;;;0.50;0.50;;;;;;;;;;5090551;28;20044;-49
2021/05/23 08:48:01;;;;;;;0.30;0.30;;;;;;;;;;5092769;28;20107;-49
2021/05/23 08:50:27;;;;;;;0.30;0.30;;;;;;;;;;5086621;28;20107;-48
2021/05/23 08:52:54;;;;;;;0.30;0.30;;;;;;;;;;5080942;28;20020;-49
2021/05/23 08:55:20;;;;;;;0.43;0.43;;;;;;;;;;5092231;28;20361;-49
2021/05/23 08:57:49;;;;;;;1.20;0.45;;;;;;;;;;5092997;28;20095;-48
2021/05/23 09:00:15;;;;;;;1.33;0.50;;;;;;;;;;5092143;28;20020;-49
2021/05/23 09:02:54;;;;;;;1.83;0.47;;;;;;;;;;5091977;28;20047;-48
2021/05/23 09:05:44;;;;;;;0.47;0.40;;;;;;;;;;5091866;28;20069;-48
2021/05/23 09:08:13;;;;;;;0.60;0.60;;;;;;;;;;5091888;28;20380;-48
2021/05/23 09:10:39;;;;;;;0.55;0.45;;;;;;;;;;5091172;28;20301;-48
2021/05/23 09:13:05;;;;;;;0.68;0.63;;;;;;;;;;5092190;28;20027;-49
2021/05/23 09:15:31;;;;;;;1.17;0.77;;;;;;;;;;5092598;28;20028;-49
2021/05/23 09:18:04;;;;;;;0.52;0.52;;;;;;;;;;5092458;28;20020;-48
2021/05/23 09:20:30;;;;;;;0.50;0.50;;;;;;;;;;5091450;28;20437;-48
2021/05/23 09:22:56;;;;;;;0.50;0.50;;;;;;;;;;5092050;28;20024;-48
2021/05/23 09:25:30;;;;;;;0.85;0.30;;;;;;;;;;5091887;28;20050;-49
2021/05/23 09:27:56;;;;;;;0.77;0.40;;;;;;;;;;5092046;28;20028;-48
2021/05/23 09:30:25;;;;;;;1.33;0.30;;;;;;;;;;5091398;28;20032;-49
2021/05/23 09:32:52;;;;;;;0.73;0.43;;;;;;;;;;5091020;28;20059;-49
2021/05/23 09:35:19;;;;;;;1.67;0.40;;;;;;;;;;5091577;28;20488;-49
2021/05/23 09:37:46;;;;;;;0.40;0.40;;;;;;;;;;5091626;28;20055;-48
2021/05/23 09:40:20;;;;;;;0.40;0.40;;;;;;;;;;5091033;28;20396;-49
2021/05/23 09:42:56;;;;;;;0.30;0.30;;;;;;;;;;5089957;28;20522;-49
2021/05/23 09:45:22;;;;;;;1.83;0.70;;;;;;;;;;5090804;28;20032;-49
2021/05/23 09:47:55;;;;;;;0.40;0.40;;;;;;;;;;5091010;28;20020;-48
2021/05/23 09:50:41;;;;;;;0.82;0.57;;;;;;;;;;5091306;28;20024;-48
2021/05/23 09:53:18;;;;;;;0.40;0.40;;;;;;;;;;5089756;28;20110;-48
2021/05/23 09:55:58;;;;;;;1.25;0.45;;;;;;;;;;5090272;28;20027;-49
2021/05/23 09:58:25;;;;;;;0.70;0.40;;;;;;;;;;5091156;28;20190;-49
2021/05/23 10:00:51;;;;;;;1.27;0.45;;;;;;;;;;5088157;28;20051;-49
2021/05/23 10:03:27;;;;;;;2.55;0.60;;;;;;;;;;5091673;28;20031;-49
2021/05/23 10:05:53;;;;;;;0.30;0.30;;;;;;;;;;5091576;28;20115;-49
2021/05/23 10:08:20;;;;;;;2.28;0.40;;;;;;;;;;5091686;28;20020;-49
2021/05/23 10:10:46;;;;;;;1.38;0.52;;;;;;;;;;5091195;28;20111;-48
2021/05/23 10:13:12;;;;;;;0.50;0.50;;;;;;;;;;5090955;28;20330;-49
2021/05/23 10:15:39;;;;;;;4.20;0.45;;;;;;;;;;5090771;28;20559;-49
2021/05/23 10:18:06;;;;;;;0.73;0.65;;;;;;;;;;5091471;28;20073;-49
2021/05/23 10:20:33;;;;;;;0.30;0.30;;;;;;;;;;5091077;28;20024;-49
2021/05/23 10:23:00;;;;;;;0.43;0.43;;;;;;;;;;5091571;28;20022;-49
2021/05/23 10:25:28;;;;;;;2.58;0.70;;;;;;;;;;5090985;28;20047;-49
2021/05/23 10:27:55;;;;;;;0.60;0.60;;;;;;;;;;5089658;28;20016;-49
2021/05/23 10:30:21;;;;;;;0.82;0.52;;;;;;;;;;5090612;28;20040;-49
2021/05/23 10:32:47;;;;;;;0.40;0.40;;;;;;;;;;5091154;28;20078;-48
2021/05/23 10:35:16;;;;;;;0.63;0.40;;;;;;;;;;5091301;28;20044;-49
2021/05/23 10:37:43;;;;;;;0.20;0.20;;;;;;;;;;5090996;28;20043;-49
2021/05/23 10:40:18;;;;;;;2.63;0.55;;;;;;;;;;5090711;28;20024;-49
2021/05/23 10:42:48;;;;;;;1.35;1.13;;;;;;;;;;5091495;28;20032;-48
2021/05/23 10:45:31;;;;;;;0.30;0.30;;;;;;;;;;5094934;28;20032;-49
2021/05/23 10:47:58;;;;;;;0.57;0.50;;;;;;;;;;5095338;28;20064;-48
2021/05/23 10:50:31;;;;;;;0.40;0.40;;;;;;;;;;5094136;28;20285;-49
2021/05/23 10:52:58;;;;;;;0.77;0.43;;;;;;;;;;5092304;28;20461;-49
2021/05/23 10:55:24;;;;;;;0.43;0.43;;;;;;;;;;5094400;28;20396;-48
2021/05/23 10:57:51;;;;;;;0.30;0.30;;;;;;;;;;5094683;28;20123;-48
2021/05/23 11:00:20;;;;;;;0.60;0.60;;;;;;;;;;5094379;28;20023;-48
2021/05/23 11:02:46;;;;;;;0.30;0.30;;;;;;;;;;5094792;28;20032;-49
2021/05/23 11:05:12;;;;;;;1.88;0.40;;;;;;;;;;5094352;28;20070;-48
2021/05/23 11:07:39;;;;;;;0.40;0.40;;;;;;;;;;5093474;28;20039;-49
2021/05/23 11:10:15;;;;;;;1.40;1.30;;;;;;;;;;5094058;28;20457;-48
2021/05/23 11:12:51;;;;;;;1.27;0.70;;;;;;;;;;5092636;28;20058;-48
2021/05/23 11:15:17;;;;;;;0.95;0.70;;;;;;;;;;5093742;28;20035;-49
2021/05/23 11:17:44;;;;;;;0.40;0.40;;;;;;;;;;5091536;28;20024;-49
2021/05/23 11:20:36;;;;;;;1.63;0.98;;;;;;;;;;5093805;28;20107;-48
2021/05/23 11:23:06;;;;;;;0.63;0.52;;;;;;;;;;5090702;28;20364;-49
2021/05/23 11:25:33;;;;;;;0.20;0.20;;;;;;;;;;5093975;28;20067;-49
2021/05/23 11:27:59;;;;;;;0.40;0.40;;;;;;;;;;5094149;28;20116;-49
2021/05/23 11:30:30;;;;;;;3.45;1.02;;;;;;;;;;5085711;28;20350;-49
2021/05/23 11:32:56;;;;;;;;;;;;;;;;;;5093220;28;20428;-48
2021/05/23 11:35:23;;;;;;;0.63;0.40;;;;;;;;;;5093504;28;19904;-48
2021/05/23 11:37:52;;;;;;;0.35;0.30;;;;;;;;;;5093939;28;20024;-48
2021/05/23 11:40:18;;;;;;;0.40;0.40;;;;;;;;;;5093267;28;20024;-48
2021/05/23 11:42:44;;;;;;;0.45;0.45;;;;;;;;;;5093772;28;20031;-49
2021/05/23 11:45:23;;;;;;;0.50;0.50;;;;;;;;;;5093226;28;20050;-49
2021/05/23 11:47:51;;;;;;;1.93;0.60;;;;;;;;;;5092040;28;20018;-48
2021/05/23 11:50:20;;;;;;;0.52;0.50;;;;;;;;;;5090590;28;20020;-48
2021/05/23 11:52:49;;;;;;;2.70;0.60;;;;;;;;;;5092144;28;20390;-49
2021/05/23 11:55:15;;;;;;;0.30;0.30;;;;;;;;;;5093322;28;20040;-48
2021/05/23 11:57:41;;;;;;;0.50;0.50;;;;;;;;;;5092619;28;20019;-49
2021/05/23 12:00:20;;;;;;;0.40;0.40;;;;;;;;;;5093392;28;20531;-48
2021/05/23 12:02:47;;;;;;;1.90;0.40;;;;;;;;;;5090925;28;20012;-49
2021/05/23 12:05:13;;;;;;;0.75;0.47;;;;;;;;;;5092436;28;20418;-48
2021/05/23 12:07:41;;;;;;;1.42;0.50;;;;;;;;;;5085995;28;20032;-49
2021/05/23 12:10:08;;;;;;;0.50;0.50;;;;;;;;;;5083101;28;20091;-48
2021/05/23 12:12:34;;;;;;;0.55;0.55;;;;;;;;;;5093401;28;20101;-48
2021/05/23 12:14:59;;;;;;;2.33;0.80;;;;;;;;;;5093365;28;20060;-49
2021/05/23 12:17:25;;;;;;;1.42;0.77;;;;;;;;;;5093238;28;20053;-49
2021/05/23 12:19:56;;;;;;;1.50;0.55;;;;;;;;;;5093693;28;20036;-48
2021/05/23 12:22:32;;;;;;;1.75;1.08;;;;;;;;;;5089591;28;20024;-49
2021/05/23 12:24:59;;;;;;;0.38;0.38;;;;;;;;;;5092986;28;20032;-48
2021/05/23 12:27:33;;;;;;;0.40;0.40;;;;;;;;;;5092986;28;20020;-49
2021/05/23 12:30:12;;;;;;;0.43;0.40;;;;;;;;;;5086334;28;20477;-49
2021/05/23 12:32:41;;;;;;;2.63;0.80;;;;;;;;;;5072916;28;20021;-49
2021/05/23 12:35:17;;;;;;;0.80;0.70;;;;;;;;;;5072934;28;20077;-49
2021/05/23 12:37:54;;;;;;;1.20;0.50;;;;;;;;;;5072878;28;20032;-48
2021/05/23 12:40:21;;;;;;;1.08;0.30;;;;;;;;;;5083659;28;20039;-48
2021/05/23 12:42:48;;;;;;;2.30;0.65;;;;;;;;;;5092668;28;20145;-48
2021/05/23 12:45:14;;;;;;;0.70;0.30;;;;;;;;;;5093260;28;20107;-49
2021/05/23 12:47:54;;;;;;;1.20;0.63;;;;;;;;;;5092295;28;20465;-49
2021/05/23 12:50:52;;;;;;;2.20;0.70;;;;;;;;;;5072220;28;20111;-48
2021/05/23 12:53:21;;;;;;;2.30;1.02;;;;;;;;;;5082618;28;20028;-48
2021/05/23 12:55:47;;;;;;;0.50;0.50;;;;;;;;;;5088711;28;20173;-48
2021/05/23 12:58:13;;;;;;;0.30;0.30;;;;;;;;;;5088914;28;20024;-49
2021/05/23 13:00:41;;;;;;;3.13;1.02;;;;;;;;;;5089361;28;20038;-49
2021/05/23 13:03:10;;;;;;;0.55;0.40;;;;;;;;;;5089467;28;20458;-48
2021/05/23 13:05:36;;;;;;;0.35;0.35;;;;;;;;;;5089561;28;20108;-48
2021/05/23 13:08:12;;;;;;;0.50;0.50;;;;;;;;;;5077851;28;20016;-48
2021/05/23 13:10:38;;;;;;;1.02;0.77;;;;;;;;;;5068660;28;20036;-49
2021/05/23 13:13:04;;;;;;;0.40;0.40;;;;;;;;;;5069089;28;20036;-48
2021/05/23 13:15:31;;;;;;;5.82;1.75;;;;;;;;;;5069070;28;20132;-48
2021/05/23 13:17:57;;;;;;;0.30;0.30;;;;;;;;;;5088895;28;20520;-48
2021/05/23 13:20:30;;;;;;;0.32;0.32;;;;;;;;;;5089429;28;20103;-49
2021/05/23 13:22:56;;;;;;;0.43;0.43;;;;;;;;;;5088443;28;20058;-48
2021/05/23 13:25:25;;;;;;;1.38;1.02;;;;;;;;;;5088915;28;20564;-49
2021/05/23 13:27:51;;;;;;;2.33;0.85;;;;;;;;;;5087803;28;20105;-49
2021/05/23 13:30:18;;;;;;;0.60;0.60;;;;;;;;;;5085750;28;20070;-48
2021/05/23 13:32:44;;;;;;;1.02;0.90;;;;;;;;;;5092271;28;20300;-48
2021/05/23 13:35:11;;;;;;;0.50;0.50;;;;;;;;;;5091969;28;20027;-49
2021/05/23 13:37:37;;;;;;;0.80;0.80;;;;;;;;;;5091234;28;20024;-49
2021/05/23 13:40:04;;;;;;;0.73;0.63;;;;;;;;;;5091898;28;20024;-48
2021/05/23 13:42:30;;;;;;;3.58;0.70;;;;;;;;;;5091458;28;20028;-48
2021/05/23 13:44:56;;;;;;;1.98;0.60;;;;;;;;;;5091734;28;20051;-48
2021/05/23 13:47:22;;;;;;;0.82;0.50;;;;;;;;;;5091687;28;20047;-48
2021/05/23 13:49:48;;;;;;;1.27;0.40;;;;;;;;;;5091954;28;20427;-49
2021/05/23 13:52:14;;;;;;;0.30;0.30;;;;;;;;;;5090876;28;20189;-49
2021/05/23 13:54:40;;;;;;;0.70;0.60;;;;;;;;;;5077498;28;20099;-48
2021/05/23 13:57:07;;;;;;;0.77;0.60;;;;;;;;;;5071184;28;20070;-49
2021/05/23 13:59:33;;;;;;;0.20;0.20;;;;;;;;;;5069132;28;20025;-49
2021/05/23 14:01:59;;;;;;;0.55;0.40;;;;;;;;;;5071039;28;20024;-49
2021/05/23 14:04:25;;;;;;;0.57;0.50;;;;;;;;;;5071036;28;20048;-49
2021/05/23 14:06:52;;;;;;;0.30;0.30;;;;;;;;;;5069822;28;20474;-49
2021/05/23 14:09:19;;;;;;;1.38;0.80;;;;;;;;;;5070450;28;20032;-49
2021/05/23 14:11:45;;;;;;;0.20;0.20;;;;;;;;;;5070205;28;20035;-48
2021/05/23 14:14:11;;;;;;;0.20;0.20;;;;;;;;;;5070871;28;20119;-48
2021/05/23 14:16:37;;;;;;;0.30;0.30;;;;;;;;;;5087534;28;20020;-49
2021/05/23 14:19:04;;;;;;;1.00;0.60;;;;;;;;;;5088933;28;20097;-48
2021/05/23 14:21:30;;;;;;;0.85;0.47;;;;;;;;;;5087624;28;20323;-49
2021/05/23 14:23:56;;;;;;;0.40;0.30;;;;;;;;;;5090882;28;20032;-49
2021/05/23 14:26:24;;;;;;;0.55;0.55;;;;;;;;;;5091050;28;20043;-48
2021/05/23 14:28:50;;;;;;;0.20;0.20;;;;;;;;;;5090387;28;20459;-48
2021/05/23 14:31:20;;;;;;;3.45;0.40;;;;;;;;;;5090702;28;20032;-48
2021/05/23 14:33:46;;;;;;;0.40;0.40;;;;;;;;;;5090525;28;20519;-49
2021/05/23 14:36:12;;;;;;;0.40;0.40;;;;;;;;;;5090690;28;20302;-48
2021/05/23 14:38:38;;;;;;;0.52;0.52;;;;;;;;;;5090304;28;20043;-49
2021/05/23 14:41:04;;;;;;;0.55;0.40;;;;;;;;;;5090490;28;20020;-48
2021/05/23 14:43:32;;;;;;;0.88;0.40;;;;;;;;;;5090413;28;20221;-48
2021/05/23 14:45:58;;;;;;;1.40;0.40;;;;;;;;;;5090696;28;20457;-48